Time;durP1;ratioP1;P1;durP2;ratioP2;P2;SDS_P1;SDS_P2;PMS_P1;PMS_P2;Temp;Humidity;BMP_temperature;BMP_pressure;BME280_temperature;BME280_humidity;BME280_pressure;Samples;Min_cycle;Max_cycle;Signal;HPM_P1;HPM_P2
2023/01/12 00:01:59;;;;;;;24.53;4.53;;;;;;;19.27;55.29;100725.22;5089169;28;20440;-61
2023/01/12 00:04:24;;;;;;;26.33;4.63;;;;;;;19.11;55.46;100712.16;5090523;28;20206;-61
2023/01/12 00:06:50;;;;;;;15.40;3.10;;;;;;;18.94;55.34;100704.84;5088218;28;20183;-60
2023/01/12 00:09:15;;;;;;;12.27;2.83;;;;;;;19.00;53.72;100709.06;5106453;28;20181;-61
2023/01/12 00:11:41;;;;;;;11.13;2.67;;;;;;;19.02;53.81;100711.56;5090549;28;20506;-60
2023/01/12 00:14:07;;;;;;;12.10;2.40;;;;;;;19.06;53.73;100710.41;5100993;28;20539;-61
2023/01/12 00:16:39;;;;;;;14.07;2.50;;;;;;;19.13;53.25;100716.31;5093520;28;20186;-61
2023/01/12 00:19:11;;;;;;;10.80;3.20;;;;;;;19.15;53.71;100707.31;5089679;28;20844;-61
2023/01/12 00:24:29;;;;;;;18.00;2.80;;;;;;;19.16;53.77;100706.16;5092608;28;20416;-61
2023/01/12 00:26:55;;;;;;;14.90;3.40;;;;;;;19.14;54.12;100705.69;5092017;28;20777;-61
2023/01/12 00:29:21;;;;;;;11.00;2.87;;;;;;;19.14;53.88;100700.78;5093182;28;20417;-61
2023/01/12 00:31:46;;;;;;;9.77;2.60;;;;;;;19.14;54.20;100703.66;5077913;28;20443;-61
2023/01/12 00:34:12;;;;;;;16.30;3.40;;;;;;;19.14;54.57;100697.09;5093587;28;20537;-60
2023/01/12 00:36:38;;;;;;;9.27;2.40;;;;;;;19.15;54.30;100702.44;5093536;28;20193;-61
2023/01/12 00:39:03;;;;;;;12.23;2.40;;;;;;;19.15;54.56;100701.59;5105536;28;20467;-61
2023/01/12 00:46:57;;;;;;;18.93;3.73;;;;;;;19.14;54.79;100695.06;5108622;28;20493;-61
2023/01/12 00:49:22;;;;;;;16.00;2.97;;;;;;;19.09;55.10;100689.66;5113818;28;20890;-60
2023/01/12 00:51:48;;;;;;;14.10;2.57;;;;;;;19.13;55.30;100686.84;5109701;28;20174;-61
2023/01/12 00:54:13;;;;;;;8.63;2.50;;;;;;;19.10;55.44;100687.59;5112508;28;20542;-61
2023/01/12 00:56:39;;;;;;;7.07;2.57;;;;;;;19.09;55.58;100675.34;5110269;28;20533;-60
2023/01/12 00:59:05;;;;;;;10.87;3.30;;;;;;;19.11;55.50;100674.97;5113151;28;20211;-61
2023/01/12 01:01:31;;;;;;;18.63;3.17;;;;;;;19.11;55.64;100678.63;5113072;28;20261;-60
2023/01/12 01:03:57;;;;;;;12.03;3.40;;;;;;;19.08;55.60;100670.81;5099548;28;20428;-61
2023/01/12 01:06:22;;;;;;;10.80;2.67;;;;;;;19.10;55.43;100681.88;5092632;28;20892;-61
2023/01/12 01:08:48;;;;;;;8.53;2.60;;;;;;;19.09;55.45;100683.91;5092774;28;20182;-61
2023/01/12 01:11:13;;;;;;;11.33;2.30;;;;;;;19.08;55.59;100678.56;5106357;28;20181;-60
2023/01/12 01:13:40;;;;;;;7.10;2.27;;;;;;;19.07;55.96;100692.03;5095990;28;20544;-60
2023/01/12 01:16:06;;;;;;;9.23;2.70;;;;;;;19.08;55.77;100688.00;5095138;28;20645;-60
2023/01/12 01:18:32;;;;;;;8.43;1.93;;;;;;;19.07;55.91;100694.09;5092920;28;20459;-61
2023/01/12 01:20:57;;;;;;;16.73;3.80;;;;;;;19.08;55.92;100698.59;5074881;28;20420;-61
2023/01/12 01:23:23;;;;;;;9.63;2.43;;;;;;;19.08;56.17;100696.56;5094312;28;20600;-61
2023/01/12 01:25:49;;;;;;;12.73;2.97;;;;;;;19.10;55.76;100701.91;5107101;28;20173;-61
2023/01/12 01:28:15;;;;;;;10.57;2.53;;;;;;;19.09;56.25;100701.09;5109093;28;20166;-61
2023/01/12 01:30:40;;;;;;;9.93;2.43;;;;;;;19.08;56.18;100702.31;5106361;28;20189;-60
2023/01/12 01:33:05;;;;;;;7.40;2.27;;;;;;;19.07;56.23;100703.47;5111949;28;20424;-60
2023/01/12 01:35:31;;;;;;;7.03;2.63;;;;;;;19.05;56.42;100693.59;5108019;28;20192;-60
2023/01/12 01:37:56;;;;;;;10.37;2.33;;;;;;;19.06;56.64;100707.56;5099190;28;20281;-60
2023/01/12 01:40:22;;;;;;;9.10;3.17;;;;;;;19.05;56.42;100713.66;5091656;28;20227;-61
2023/01/12 01:42:47;;;;;;;7.90;2.40;;;;;;;19.04;56.35;100712.00;5092941;28;20252;-61
2023/01/12 01:45:15;;;;;;;8.77;3.20;;;;;;;19.04;56.71;100723.44;5091662;28;20723;-61
2023/01/12 01:47:43;;;;;;;6.57;2.53;;;;;;;19.04;56.16;100712.84;5091649;28;20159;-61
2023/01/12 01:50:15;;;;;;;8.57;2.03;;;;;;;19.04;56.36;100721.41;5076606;28;20425;-61
2023/01/12 01:52:42;;;;;;;5.60;2.07;;;;;;;19.05;56.42;100725.09;5074304;28;20417;-61
2023/01/12 01:55:10;;;;;;;10.13;2.10;;;;;;;19.04;56.23;100714.84;5077354;28;20825;-61
2023/01/12 01:57:44;;;;;;;8.30;2.70;;;;;;;18.98;56.65;100722.91;5112374;28;20970;-61
2023/01/12 02:00:38;;;;;;;6.33;1.90;;;;;;;18.98;56.56;100714.34;5085102;28;20416;-60
2023/01/12 02:03:03;;;;;;;6.97;2.10;;;;;;;19.00;56.60;100713.94;5071688;28;20892;-60
2023/01/12 02:05:29;;;;;;;11.23;2.60;;;;;;;18.99;56.47;100704.53;5070362;28;20444;-59
2023/01/12 02:07:54;;;;;;;5.83;2.00;;;;;;;18.96;56.63;100685.25;5088951;28;20170;-60
2023/01/12 02:10:20;;;;;;;6.10;2.10;;;;;;;18.98;57.05;100665.69;5056949;28;20186;-60
2023/01/12 02:18:29;;;;;;;11.27;2.07;;;;;;;18.94;56.70;100676.22;5096500;28;20981;-59
2023/01/12 02:21:22;;;;;;;7.10;1.93;;;;;;;18.99;57.13;100666.50;5096485;28;20464;-60
2023/01/12 02:24:06;;;;;;;8.10;2.07;;;;;;;18.99;56.75;100660.78;5075972;28;20440;-60
2023/01/12 02:26:58;;;;;;;7.93;1.53;;;;;;;18.96;56.86;100641.53;5091647;28;20396;-60
2023/01/12 02:29:38;;;;;;;7.30;2.60;;;;;;;18.94;57.17;100639.03;5091441;28;20401;-60
2023/01/12 02:32:24;;;;;;;5.20;1.80;;;;;;;18.96;56.72;100667.28;5093705;28;20530;-60
2023/01/12 02:35:07;;;;;;;8.30;2.20;;;;;;;18.95;56.93;100677.88;5090239;28;20427;-60
2023/01/12 02:37:54;;;;;;;6.53;1.90;;;;;;;18.97;57.24;100675.47;5099942;28;20446;-60
2023/01/12 02:40:26;;;;;;;11.80;2.47;;;;;;;18.95;56.93;100660.72;5111895;28;20487;-60
2023/01/12 02:43:12;;;;;;;4.10;1.63;;;;;;;18.91;57.00;100648.34;5106970;28;20443;-60
2023/01/12 02:45:46;;;;;;;10.73;2.53;;;;;;;18.95;57.12;100654.16;5073165;28;20607;-60
2023/01/12 02:48:16;;;;;;;7.30;2.37;;;;;;;18.94;56.96;100653.34;5091035;28;20404;-60
2023/01/12 02:51:03;;;;;;;7.40;2.10;;;;;;;18.93;56.89;100654.53;5057072;28;20401;-60
2023/01/12 02:53:43;;;;;;;4.17;1.43;;;;;;;18.92;57.17;100660.63;5055162;28;20437;-60
2023/01/12 02:56:10;;;;;;;8.87;2.50;;;;;;;18.92;57.26;100660.63;5071248;28;20425;-60
2023/01/12 02:58:39;;;;;;;6.63;1.87;;;;;;;18.93;57.19;100665.16;5091886;28;21294;-60
2023/01/12 03:01:04;;;;;;;5.93;2.10;;;;;;;18.92;57.03;100666.34;5093454;28;20408;-60
2023/01/12 03:03:30;;;;;;;7.57;1.97;;;;;;;18.90;57.06;100663.03;5086953;28;20440;-60
2023/01/12 03:05:57;;;;;;;5.40;1.70;;;;;;;18.93;57.24;100651.69;5091110;28;20252;-60
2023/01/12 03:08:24;;;;;;;10.40;2.07;;;;;;;18.90;57.20;100643.00;5074679;28;20190;-60
2023/01/12 03:11:18;;;;;;;8.63;2.57;;;;;;;18.88;57.06;100646.25;5072962;28;20424;-60
2023/01/12 03:13:55;;;;;;;5.87;2.20;;;;;;;18.89;57.33;100649.94;5090849;28;20400;-60
2023/01/12 03:16:23;;;;;;;5.17;1.80;;;;;;;18.89;57.15;100644.22;5058514;28;20465;-60
2023/01/12 03:19:01;;;;;;;7.83;2.27;;;;;;;18.88;57.29;100634.81;5072825;28;20823;-59
2023/01/12 03:21:33;;;;;;;5.70;2.20;;;;;;;18.89;57.16;100647.91;5073660;28;20428;-60
2023/01/12 03:24:04;;;;;;;4.60;1.90;;;;;;;18.88;57.40;100646.25;5072885;28;20423;-60
2023/01/12 03:26:30;;;;;;;4.43;2.00;;;;;;;18.88;57.17;100643.41;5075993;28;20469;-60
2023/01/12 03:29:35;;;;;;;5.70;1.73;;;;;;;18.87;57.47;100643.78;5093146;28;20902;-60
2023/01/12 03:32:00;;;;;;;2.90;1.33;;;;;;;18.87;57.34;100638.84;4980385;28;20488;-60
2023/01/12 03:34:26;;;;;;;4.30;1.60;;;;;;;18.88;57.35;100637.69;4988937;28;20421;-60
2023/01/12 03:37:21;;;;;;;6.20;1.80;;;;;;;18.88;57.12;100633.97;5039712;28;20191;-60
2023/01/12 03:40:02;;;;;;;6.87;2.07;;;;;;;18.85;57.44;100606.94;5075814;28;20211;-60
2023/01/12 03:43:00;;;;;;;4.23;1.73;;;;;;;18.86;57.56;100622.09;5108159;28;20912;-59
2023/01/12 03:45:55;;;;;;;4.93;1.60;;;;;;;18.87;57.55;100624.56;5055430;28;20464;-60
2023/01/12 03:48:25;;;;;;;6.17;1.50;;;;;;;18.88;57.19;100622.53;5057026;28;20820;-60
2023/01/12 03:50:58;;;;;;;4.93;1.40;;;;;;;18.86;57.38;100627.81;5056392;28;20508;-60
2023/01/12 03:53:24;;;;;;;6.60;1.80;;;;;;;18.89;57.44;100616.44;5078657;28;20443;-60
2023/01/12 03:55:52;;;;;;;6.57;2.23;;;;;;;18.87;57.41;100615.97;5094182;28;20427;-60
2023/01/12 03:58:17;;;;;;;6.90;1.97;;;;;;;18.85;57.16;100606.94;5099608;28;20394;-60
2023/01/12 04:00:43;;;;;;;3.80;1.43;;;;;;;18.86;57.37;100614.31;5096653;28;20427;-60
2023/01/12 04:03:13;;;;;;;9.67;2.37;;;;;;;18.87;57.28;100601.66;5090165;28;20167;-60
2023/01/12 04:05:38;;;;;;;5.63;1.50;;;;;;;18.86;57.34;100602.88;5074000;28;20237;-60
2023/01/12 04:08:04;;;;;;;4.30;1.60;;;;;;;18.85;57.53;100604.09;5069834;28;20789;-60
2023/01/12 04:10:29;;;;;;;4.93;1.77;;;;;;;18.84;57.31;100593.84;5101846;28;20904;-60
2023/01/12 04:12:55;;;;;;;5.67;1.67;;;;;;;18.86;57.33;100594.28;5094701;28;20174;-60
2023/01/12 04:15:20;;;;;;;6.03;2.33;;;;;;;18.89;57.48;100587.00;5113497;28;20181;-60
2023/01/12 04:17:46;;;;;;;4.43;1.60;;;;;;;18.87;57.33;100587.34;5107187;28;20202;-60
2023/01/12 04:20:11;;;;;;;5.47;1.87;;;;;;;18.87;57.52;100598.81;5094147;28;20170;-60
2023/01/12 04:22:42;;;;;;;5.73;2.07;;;;;;;18.85;57.41;100592.66;5079375;28;20173;-59
2023/01/12 04:25:11;;;;;;;4.90;1.57;;;;;;;18.85;57.72;100594.66;5114306;28;20495;-60
2023/01/12 04:27:40;;;;;;;4.80;1.60;;;;;;;18.87;57.47;100592.28;5101824;28;20409;-60
2023/01/12 04:30:06;;;;;;;5.70;1.70;;;;;;;18.85;57.36;100595.50;5073646;28;20404;-60
2023/01/12 04:32:31;;;;;;;8.87;1.90;;;;;;;18.85;57.26;100597.53;5087820;28;20436;-60
2023/01/12 04:34:57;;;;;;;6.47;1.90;;;;;;;18.86;57.95;100590.63;5093590;28;20431;-59
2023/01/12 04:37:22;;;;;;;4.03;1.77;;;;;;;18.83;57.37;100600.78;5099630;28;20182;-60
2023/01/12 04:39:48;;;;;;;8.10;2.70;;;;;;;18.85;57.53;100604.09;5114067;28;20173;-59
2023/01/12 04:44:57;;;;;;;7.10;1.80;;;;;;;18.84;57.44;100599.56;5113845;28;20318;-60
2023/01/12 04:47:23;;;;;;;3.30;1.37;;;;;;;18.82;57.62;100604.81;5109668;28;20439;-60
2023/01/12 04:49:48;;;;;;;4.97;1.50;;;;;;;18.86;57.54;100602.06;5113922;28;20177;-60
2023/01/12 04:52:13;;;;;;;4.70;1.60;;;;;;;18.87;57.34;100598.81;5106356;28;20190;-60
2023/01/12 04:54:39;;;;;;;8.23;1.60;;;;;;;18.85;57.38;100603.25;5093466;28;20184;-60
2023/01/12 04:57:04;;;;;;;5.20;1.40;;;;;;;18.85;57.49;100603.25;5092517;28;20154;-60
2023/01/12 04:59:30;;;;;;;6.93;1.70;;;;;;;18.85;57.24;100606.94;5095084;28;20677;-59
2023/01/12 05:01:55;;;;;;;3.50;1.53;;;;;;;18.87;57.50;100610.25;5093254;28;20178;-60
2023/01/12 05:04:21;;;;;;;8.60;1.40;;;;;;;18.86;57.35;100605.72;5079764;28;20268;-60
2023/01/12 05:06:46;;;;;;;5.83;1.93;;;;;;;18.84;57.45;100596.72;5076720;28;20186;-60
2023/01/12 05:11:55;;;;;;;3.67;1.70;;;;;;;18.87;57.39;100598.00;5113491;28;20164;-59
2023/01/12 05:14:21;;;;;;;5.10;2.10;;;;;;;18.86;57.40;100597.16;5108959;28;20809;-60
2023/01/12 05:16:46;;;;;;;6.73;1.60;;;;;;;18.86;57.34;100582.03;5072882;28;20163;-60
2023/01/12 05:19:12;;;;;;;5.03;1.53;;;;;;;18.84;57.49;100588.13;5072591;28;20202;-59
2023/01/12 05:21:37;;;;;;;7.40;1.60;;;;;;;18.87;57.43;100586.56;5056965;28;20179;-60
2023/01/12 05:24:02;;;;;;;4.13;1.47;;;;;;;18.86;57.55;100582.03;5111034;28;20235;-60
2023/01/12 05:26:28;;;;;;;6.83;1.60;;;;;;;18.84;57.57;100567.25;5113295;28;20168;-60
2023/01/12 05:28:53;;;;;;;7.97;1.73;;;;;;;18.85;57.61;100566.06;5108419;28;20633;-60
2023/01/12 05:31:19;;;;;;;5.60;1.63;;;;;;;18.84;57.29;100556.66;5109523;28;20183;-60
2023/01/12 05:33:45;;;;;;;3.70;1.43;;;;;;;18.88;57.56;100553.88;5113098;28;20174;-60
2023/01/12 05:36:12;;;;;;;3.63;1.53;;;;;;;18.83;57.49;100542.72;5111669;28;20162;-60
2023/01/12 05:38:37;;;;;;;8.03;2.50;;;;;;;18.87;57.64;100555.09;5110499;28;20284;-59
2023/01/12 05:41:03;;;;;;;7.30;1.30;;;;;;;18.85;57.33;100541.16;5112432;28;20427;-59
2023/01/12 05:46:13;;;;;;;4.73;1.50;;;;;;;18.86;57.49;100537.06;5112433;28;20878;-60
2023/01/12 05:48:38;;;;;;;5.00;1.63;;;;;;;18.88;57.23;100530.97;5101514;28;20424;-60
2023/01/12 05:51:05;;;;;;;3.50;1.20;;;;;;;18.87;57.83;100535.88;5092233;28;20166;-59
2023/01/12 05:53:30;;;;;;;4.40;1.50;;;;;;;18.84;57.33;100533.78;5092624;28;20200;-60
2023/01/12 05:55:56;;;;;;;3.73;1.17;;;;;;;18.85;57.65;100528.88;5092248;28;20895;-60
2023/01/12 05:58:21;;;;;;;2.13;1.00;;;;;;;18.84;57.44;100528.06;5094718;28;20734;-60
2023/01/12 06:00:47;;;;;;;3.10;1.40;;;;;;;18.87;57.25;100521.56;5094021;28;20196;-60
2023/01/12 06:03:12;;;;;;;5.50;1.57;;;;;;;18.83;57.49;100520.69;5088391;28;20218;-59
2023/01/12 06:05:38;;;;;;;5.70;1.50;;;;;;;18.86;57.58;100511.34;5090584;28;20206;-60
2023/01/12 06:08:03;;;;;;;3.53;1.40;;;;;;;18.83;57.34;100509.25;5091978;28;20179;-60
2023/01/12 06:10:29;;;;;;;4.37;1.30;;;;;;;18.84;57.51;100508.03;5093915;28;20210;-59
2023/01/12 06:15:38;;;;;;;4.40;1.57;;;;;;;18.91;57.65;100510.22;5094282;28;20320;-59
2023/01/12 06:18:04;;;;;;;4.03;1.20;;;;;;;18.85;57.48;100501.09;5105900;28;20463;-59
2023/01/12 06:20:29;;;;;;;3.63;1.40;;;;;;;18.86;57.40;100502.75;5110350;28;20177;-59
2023/01/12 06:22:54;;;;;;;2.10;1.00;;;;;;;18.87;57.37;100498.69;5105070;28;20570;-60
2023/01/12 06:25:20;;;;;;;4.50;1.37;;;;;;;18.86;57.36;100499.88;5089797;28;20163;-61
2023/01/12 06:27:45;;;;;;;3.67;1.50;;;;;;;18.87;57.35;100495.81;5098719;28;20242;-61
2023/01/12 06:30:11;;;;;;;3.83;1.27;;;;;;;18.86;57.89;100505.63;5094955;28;20182;-60
2023/01/12 06:32:37;;;;;;;4.57;1.60;;;;;;;18.88;57.36;100488.06;5091794;28;20166;-60
2023/01/12 06:35:03;;;;;;;4.37;1.17;;;;;;;18.86;57.47;100491.31;5091498;28;20222;-60
2023/01/12 06:37:29;;;;;;;6.40;1.53;;;;;;;18.86;57.49;100474.16;5084007;28;20431;-60
2023/01/12 06:39:54;;;;;;;4.10;1.50;;;;;;;18.87;57.36;100480.72;5088798;28;20201;-60
2023/01/12 06:42:28;;;;;;;6.27;1.93;;;;;;;18.85;57.48;100477.38;5091150;28;20179;-60
2023/01/12 06:44:58;;;;;;;3.23;1.23;;;;;;;18.84;57.48;100473.72;5093185;28;20211;-60
2023/01/12 06:47:24;;;;;;;7.33;1.60;;;;;;;18.88;57.58;100476.63;5073687;28;20760;-60
2023/01/12 06:49:50;;;;;;;4.73;1.77;;;;;;;18.89;57.36;100472.56;5091377;28;20401;-60
2023/01/12 06:52:20;;;;;;;2.53;1.27;;;;;;;18.90;57.37;100474.22;5093565;28;20189;-60
2023/01/12 06:54:46;;;;;;;5.23;1.70;;;;;;;18.90;57.42;100471.34;5091135;28;20461;-60
2023/01/12 06:57:12;;;;;;;4.43;1.50;;;;;;;18.91;57.17;100470.16;5091001;28;20427;-60
2023/01/12 06:59:38;;;;;;;6.40;1.50;;;;;;;18.87;57.24;100466.41;5096074;28;20199;-60
2023/01/12 07:02:03;;;;;;;4.47;1.40;;;;;;;18.88;57.77;100462.31;5074029;28;20444;-60
2023/01/12 07:04:29;;;;;;;2.73;1.10;;;;;;;18.84;57.48;100465.13;5070879;28;20202;-60
2023/01/12 07:06:54;;;;;;;5.00;1.50;;;;;;;18.88;57.42;100476.63;5077410;28;20541;-60
2023/01/12 07:09:20;;;;;;;4.83;1.47;;;;;;;18.88;57.38;100488.06;5094937;28;20648;-60
2023/01/12 07:11:45;;;;;;;4.10;1.73;;;;;;;18.85;57.38;100481.06;5111291;28;20182;-59
2023/01/12 07:14:11;;;;;;;6.73;1.30;;;;;;;18.92;57.48;100478.34;5110288;28;20165;-60
2023/01/12 07:16:36;;;;;;;4.50;1.30;;;;;;;18.90;57.44;100488.50;5095703;28;20189;-60
2023/01/12 07:19:02;;;;;;;3.40;1.20;;;;;;;18.86;57.56;100482.72;5091005;28;20224;-59
2023/01/12 07:21:27;;;;;;;3.70;1.30;;;;;;;18.87;57.69;100475.78;5111964;28;20185;-60
2023/01/12 07:23:53;;;;;;;5.73;1.53;;;;;;;18.88;57.35;100471.75;5115898;28;20192;-60
2023/01/12 07:26:18;;;;;;;5.27;2.27;;;;;;;18.88;57.61;100465.19;5097530;28;20174;-60
2023/01/12 07:28:44;;;;;;;3.50;1.13;;;;;;;18.88;57.38;100465.19;5097738;28;20166;-60
2023/01/12 07:31:09;;;;;;;5.57;1.30;;;;;;;18.88;57.08;100476.63;5081327;28;20184;-61
2023/01/12 07:33:36;;;;;;;3.50;1.47;;;;;;;18.89;57.59;100479.13;5117491;28;20176;-61
2023/01/12 07:36:02;;;;;;;2.60;1.30;;;;;;;18.88;57.40;100466.03;5117924;28;20162;-60
2023/01/12 07:38:27;;;;;;;4.30;1.50;;;;;;;18.88;57.18;100473.78;5111555;28;20502;-60
2023/01/12 07:40:53;;;;;;;3.50;1.23;;;;;;;18.89;57.50;100466.84;5115446;28;20188;-60
2023/01/12 07:43:18;;;;;;;4.10;1.40;;;;;;;18.90;57.10;100474.22;5117912;28;20178;-61
2023/01/12 07:45:45;;;;;;;2.50;0.90;;;;;;;18.91;57.20;100478.75;5113029;28;20593;-60
2023/01/12 07:48:10;;;;;;;4.30;1.10;;;;;;;18.90;57.29;100477.91;5099468;28;20169;-60
2023/01/12 07:50:36;;;;;;;5.73;1.73;;;;;;;18.91;57.24;100495.91;5113962;28;20427;-61
2023/01/12 07:53:02;;;;;;;4.10;1.63;;;;;;;18.88;57.34;100493.81;5074295;28;20203;-61
2023/01/12 07:55:29;;;;;;;3.57;1.33;;;;;;;18.87;57.42;100477.84;5074643;28;20566;-61
2023/01/12 07:57:59;;;;;;;3.57;1.40;;;;;;;18.89;57.24;100486.88;5064152;28;20217;-61
2023/01/12 08:00:25;;;;;;;2.77;0.93;;;;;;;18.89;57.39;100502.00;5108506;28;21315;-61
2023/01/12 08:02:52;;;;;;;5.40;1.97;;;;;;;18.88;57.44;100506.09;5066764;28;20412;-61
2023/01/12 08:05:18;;;;;;;3.13;1.13;;;;;;;18.89;57.56;100516.31;5097222;28;20205;-61
2023/01/12 08:07:43;;;;;;;4.30;1.10;;;;;;;18.90;57.18;100508.53;5097901;28;20430;-61
2023/01/12 08:10:10;;;;;;;2.50;0.90;;;;;;;18.89;57.52;100512.59;5094396;28;20186;-61
2023/01/12 08:12:35;;;;;;;4.77;1.30;;;;;;;18.86;57.44;100517.06;5093948;28;20182;-61
2023/01/12 08:15:03;;;;;;;3.00;1.30;;;;;;;18.87;57.32;100520.75;5098241;28;20440;-61
2023/01/12 08:17:28;;;;;;;3.03;1.43;;;;;;;18.90;57.35;100515.09;5094787;28;20186;-60
2023/01/12 08:20:00;;;;;;;2.90;1.17;;;;;;;18.89;57.40;100507.72;5062165;28;20808;-61
2023/01/12 08:22:32;;;;;;;3.23;1.17;;;;;;;18.61;53.42;100495.69;5069814;28;20596;-60
2023/01/12 08:25:00;;;;;;;6.83;1.77;;;;;;;18.43;54.39;100505.09;5080725;28;20916;-61
2023/01/12 08:27:26;;;;;;;9.70;2.27;;;;;;;18.45;51.99;100503.53;5094493;28;21082;-61
2023/01/12 08:29:57;;;;;;;11.10;3.13;;;;;;;18.60;51.36;100514.06;5103837;28;20442;-61
2023/01/12 08:32:23;;;;;;;10.43;3.00;;;;;;;18.76;54.55;100522.56;5091883;28;20428;-61
2023/01/12 08:34:50;;;;;;;16.97;3.17;;;;;;;18.88;52.58;100511.81;5092302;28;20440;-59
2023/01/12 08:37:17;;;;;;;9.00;2.53;;;;;;;18.91;53.45;100508.16;5067774;28;20178;-60
2023/01/12 08:39:43;;;;;;;9.63;2.60;;;;;;;18.91;53.43;100495.91;5071841;28;20487;-60
2023/01/12 08:42:08;;;;;;;8.30;2.97;;;;;;;18.98;53.58;100499.75;5102018;28;20926;-60
2023/01/12 08:44:34;;;;;;;7.43;2.40;;;;;;;19.05;52.93;100505.59;5090969;28;20314;-60
2023/01/12 08:47:00;;;;;;;10.30;2.80;;;;;;;19.07;53.24;100523.19;5090883;28;20230;-60
2023/01/12 08:49:26;;;;;;;7.73;2.00;;;;;;;19.10;53.25;100528.16;5079471;28;20521;-60
2023/01/12 08:51:52;;;;;;;5.87;2.00;;;;;;;19.12;53.44;100528.59;5086174;28;20198;-60
2023/01/12 08:54:18;;;;;;;8.07;2.60;;;;;;;19.08;53.60;100527.75;5092241;28;20413;-60
2023/01/12 08:56:44;;;;;;;15.60;2.90;;;;;;;19.08;53.65;100538.34;5091578;28;20202;-60
2023/01/12 08:59:09;;;;;;;7.00;2.00;;;;;;;19.05;53.77;100536.22;5093423;28;20563;-61
2023/01/12 09:01:34;;;;;;;6.70;2.30;;;;;;;19.06;53.84;100535.84;5098218;28;20192;-59
2023/01/12 09:04:00;;;;;;;8.20;2.30;;;;;;;19.39;53.38;100524.66;5086667;28;20182;-60
2023/01/12 09:06:26;;;;;;;7.77;2.23;;;;;;;19.63;54.17;100520.59;5081870;28;20179;-60
2023/01/12 09:08:56;;;;;;;13.67;2.60;;;;;;;19.60;54.03;100525.03;5090366;28;20186;-60
2023/01/12 09:11:22;;;;;;;10.93;2.70;;;;;;;19.56;54.09;100529.88;5089210;28;20559;-60
2023/01/12 09:13:47;;;;;;;9.13;2.03;;;;;;;19.50;55.92;100527.72;5087427;28;20481;-60
2023/01/12 09:16:14;;;;;;;8.70;1.77;;;;;;;19.42;55.76;100532.47;5082990;28;20190;-60
2023/01/12 09:18:40;;;;;;;8.97;2.30;;;;;;;19.35;56.05;100532.38;5090267;28;20198;-60
2023/01/12 09:21:10;;;;;;;8.17;2.20;;;;;;;19.40;55.79;100529.19;5084545;28;20433;-60
2023/01/12 09:23:36;;;;;;;13.70;2.40;;;;;;;19.46;55.71;100521.13;5057575;28;20194;-60
2023/01/12 09:26:12;;;;;;;13.77;2.27;;;;;;;19.40;55.71;100529.19;5090345;28;20451;-60
2023/01/12 09:28:37;;;;;;;7.83;2.33;;;;;;;19.36;55.77;100536.88;5069953;28;20273;-59
2023/01/12 09:31:07;;;;;;;11.50;2.20;;;;;;;19.38;55.41;100539.38;5090887;28;20887;-60
2023/01/12 09:33:33;;;;;;;7.17;1.97;;;;;;;19.31;55.25;100548.63;5088437;28;20239;-60
2023/01/12 09:36:15;;;;;;;11.33;2.03;;;;;;;19.18;55.51;100540.59;5086686;28;20432;-60
2023/01/12 09:38:42;;;;;;;11.10;3.20;;;;;;;19.01;54.78;100530.44;5102213;28;20661;-60
2023/01/12 09:41:14;;;;;;;16.83;2.57;;;;;;;19.08;54.27;100527.75;5087613;28;20439;-60
2023/01/12 09:49:21;;;;;;;15.47;2.47;;;;;;;19.10;54.15;100522.44;5074490;28;20457;-59
2023/01/12 09:51:57;;;;;;;15.93;2.33;;;;;;;19.09;54.29;100517.94;5075263;28;20471;-59
2023/01/12 09:54:22;;;;;;;6.87;2.20;;;;;;;19.15;54.46;100502.09;5072371;28;20457;-60
2023/01/12 09:56:56;;;;;;;8.93;2.07;;;;;;;19.10;53.54;100495.84;5090107;28;20448;-60
2023/01/12 09:59:33;;;;;;;16.13;2.03;;;;;;;19.07;53.60;100502.34;5070282;28;20240;-60
2023/01/12 10:01:59;;;;;;;9.70;2.00;;;;;;;19.04;53.47;100506.81;5095267;28;20444;-59
2023/01/12 10:04:24;;;;;;;9.53;2.20;;;;;;;18.98;53.81;100496.88;5091714;28;20505;-60
2023/01/12 10:06:49;;;;;;;17.30;2.70;;;;;;;18.97;53.98;100503.78;5092052;28;20603;-59
2023/01/12 10:09:19;;;;;;;8.87;2.20;;;;;;;18.96;54.06;100496.41;5088160;28;20186;-59
2023/01/12 10:11:44;;;;;;;17.77;2.90;;;;;;;18.97;53.70;100500.91;5074527;28;20190;-60
2023/01/12 10:14:31;;;;;;;7.00;1.90;;;;;;;18.98;54.05;100510.34;5096341;28;20432;-59
2023/01/12 10:17:14;;;;;;;7.83;2.60;;;;;;;18.96;54.25;100505.00;5076432;28;20191;-60
2023/01/12 10:20:04;;;;;;;13.43;2.87;;;;;;;18.94;54.45;100495.97;5084279;28;20475;-60
2023/01/12 10:22:57;;;;;;;16.50;2.73;;;;;;;18.96;55.27;100493.56;5090787;28;20438;-60
2023/01/12 10:25:39;;;;;;;11.97;2.40;;;;;;;18.95;55.80;100500.50;5067835;28;20531;-60
2023/01/12 10:28:13;;;;;;;20.23;3.07;;;;;;;18.97;56.01;100498.06;5086279;28;20444;-59
2023/01/12 10:30:39;;;;;;;10.70;2.40;;;;;;;19.05;55.74;100491.28;5056630;28;20970;-60
2023/01/12 10:33:15;;;;;;;16.00;2.43;;;;;;;19.03;55.80;100481.41;5050258;28;20524;-59
2023/01/12 10:36:09;;;;;;;9.43;2.70;;;;;;;19.05;56.04;100491.28;5087837;28;20879;-60
2023/01/12 10:38:38;;;;;;;12.73;2.40;;;;;;;19.02;55.98;100486.31;5088960;28;20555;-60
2023/01/12 10:41:09;;;;;;;8.70;2.27;;;;;;;19.07;55.86;100490.91;5071673;28;20959;-59
2023/01/12 10:43:35;;;;;;;11.20;2.53;;;;;;;19.06;56.05;100478.63;5071067;28;20482;-59
2023/01/12 10:46:11;;;;;;;12.80;2.20;;;;;;;19.04;55.95;100475.31;5055077;28;20707;-60
2023/01/12 10:48:38;;;;;;;14.03;2.43;;;;;;;19.05;55.92;100453.25;5071310;28;20404;-59
2023/01/12 10:51:05;;;;;;;12.33;2.60;;;;;;;19.06;55.99;100470.03;5071227;28;20770;-59
2023/01/12 10:53:42;;;;;;;7.80;1.90;;;;;;;19.05;56.07;100464.69;5071291;28;20410;-59
2023/01/12 10:56:37;;;;;;;8.30;1.50;;;;;;;19.04;56.39;100474.47;5070454;28;20888;-59
2023/01/12 10:59:12;;;;;;;11.73;2.40;;;;;;;19.00;56.40;100474.41;5091091;28;20464;-59
2023/01/12 11:01:51;;;;;;;8.50;2.03;;;;;;;19.05;56.15;100461.81;5073057;28;20428;-59
2023/01/12 11:04:21;;;;;;;7.30;1.97;;;;;;;19.04;56.15;100458.16;5070539;28;20445;-59
2023/01/12 11:07:02;;;;;;;6.73;2.20;;;;;;;19.02;56.20;100457.69;5073482;28;20401;-60
2023/01/12 11:09:29;;;;;;;10.70;2.73;;;;;;;19.01;56.31;100458.91;5084129;28;20794;-59
2023/01/12 11:11:59;;;;;;;8.33;2.20;;;;;;;19.03;56.11;100465.09;5071215;28;20851;-60
2023/01/12 11:14:30;;;;;;;13.33;2.03;;;;;;;19.03;56.78;100449.94;5036254;28;20413;-59
2023/01/12 11:17:03;;;;;;;11.40;1.60;;;;;;;19.01;56.21;100461.75;5070826;28;20494;-60
2023/01/12 11:19:29;;;;;;;7.93;1.97;;;;;;;19.01;56.36;100463.81;5055354;28;20488;-60
2023/01/12 11:22:11;;;;;;;8.17;1.97;;;;;;;18.99;56.67;100469.91;5052960;28;20448;-60
2023/01/12 11:24:43;;;;;;;8.63;2.57;;;;;;;19.00;56.65;100462.13;5070841;28;20401;-58
2023/01/12 11:27:18;;;;;;;8.83;1.53;;;;;;;19.00;56.57;100465.84;5053708;28;20909;-58
2023/01/12 11:29:55;;;;;;;11.63;2.60;;;;;;;19.00;56.62;100451.53;5052899;28;20479;-59
2023/01/12 11:32:31;;;;;;;8.03;1.70;;;;;;;18.98;56.63;100453.97;5052623;28;20428;-59
2023/01/12 11:35:20;;;;;;;8.70;2.00;;;;;;;18.99;56.55;100457.63;5075080;28;20423;-59
2023/01/12 11:37:45;;;;;;;8.00;2.10;;;;;;;18.95;56.55;100454.72;5069835;28;20477;-59
2023/01/12 11:40:28;;;;;;;9.80;2.10;;;;;;;19.00;56.63;100448.69;5071398;28;20490;-59
2023/01/12 11:45:51;;;;;;;6.83;2.30;;;;;;;18.96;57.08;100439.19;5053968;28;20987;-59
2023/01/12 11:48:43;;;;;;;7.67;1.83;;;;;;;18.99;56.85;100441.31;5037211;28;20433;-59
2023/01/12 11:51:13;;;;;;;7.40;2.17;;;;;;;19.00;56.83;100436.38;5027789;28;20429;-59
2023/01/12 11:53:39;;;;;;;8.77;2.40;;;;;;;18.97;56.62;100434.31;5069685;28;20405;-60
2023/01/12 11:56:12;;;;;;;5.53;1.63;;;;;;;18.98;56.86;100436.78;5070145;28;20408;-59
2023/01/12 11:58:56;;;;;;;5.20;2.07;;;;;;;18.99;57.01;100420.44;5068556;28;20298;-60
2023/01/12 12:01:24;;;;;;;5.50;1.47;;;;;;;19.02;57.01;100426.22;5072443;28;20513;-59
2023/01/12 12:03:58;;;;;;;12.83;2.13;;;;;;;19.04;56.66;100422.97;5077452;28;20448;-59
2023/01/12 12:06:23;;;;;;;9.97;1.90;;;;;;;19.00;56.80;100414.34;5068539;28;20414;-59
2023/01/12 12:09:17;;;;;;;5.50;1.30;;;;;;;19.02;56.69;100405.38;5109386;28;20725;-59